Time;durP1;ratioP1;P1;durP2;ratioP2;P2;SDS_P1;SDS_P2;PMS_P1;PMS_P2;Temp;Humidity;BMP_temperature;BMP_pressure;BME280_temperature;BME280_humidity;BME280_pressure;Samples;Min_cycle;Max_cycle;Signal;HPM_P1;HPM_P2
2022/06/30 00:00:54;;;;;;;4.43;4.03;;;22.60;70.00;;;;;;5076476;28;20448;-72
2022/06/30 00:03:21;;;;;;;4.77;4.37;;;22.60;70.40;;;;;;5076107;28;20462;-73
2022/06/30 00:05:48;;;;;;;4.10;3.70;;;22.60;70.40;;;;;;5076287;28;20475;-72
2022/06/30 00:08:16;;;;;;;5.50;5.00;;;22.50;70.50;;;;;;5075954;28;21023;-73
2022/06/30 00:10:43;;;;;;;6.93;4.43;;;22.40;70.40;;;;;;5075920;28;20455;-72
2022/06/30 00:13:11;;;;;;;5.20;4.90;;;22.40;70.60;;;;;;5076288;28;20441;-73
2022/06/30 00:15:38;;;;;;;5.20;4.70;;;22.20;70.30;;;;;;5075727;28;20970;-72
2022/06/30 00:18:05;;;;;;;6.80;5.00;;;22.20;70.40;;;;;;5076116;28;20444;-73
2022/06/30 00:20:31;;;;;;;5.13;4.73;;;22.10;70.50;;;;;;5075800;28;20482;-73
2022/06/30 00:22:58;;;;;;;4.97;4.50;;;22.10;70.80;;;;;;5075692;28;20938;-72
2022/06/30 00:25:26;;;;;;;7.13;5.13;;;22.10;70.90;;;;;;5075910;28;20461;-72
2022/06/30 00:27:53;;;;;;;5.33;4.93;;;22.10;71.00;;;;;;5075979;28;20487;-73
2022/06/30 00:30:20;;;;;;;5.20;4.67;;;22.20;71.50;;;;;;5075659;28;20457;-72
2022/06/30 00:32:47;;;;;;;4.70;4.40;;;22.20;71.50;;;;;;5075121;28;20425;-72
2022/06/30 00:35:14;;;;;;;4.70;4.40;;;22.20;71.70;;;;;;5075817;28;20483;-72
2022/06/30 00:37:41;;;;;;;5.20;4.80;;;22.20;72.00;;;;;;5075809;28;20444;-72
2022/06/30 00:40:08;;;;;;;4.50;4.10;;;22.20;72.00;;;;;;5075828;28;20444;-72
2022/06/30 00:42:37;;;;;;;5.63;5.23;;;22.20;72.30;;;;;;5075682;28;20443;-72
2022/06/30 00:45:04;;;;;;;5.33;4.83;;;22.10;72.60;;;;;;5075597;28;20464;-73
2022/06/30 00:47:31;;;;;;;5.33;4.83;;;22.20;73.30;;;;;;5075622;28;20476;-73
2022/06/30 00:49:58;;;;;;;5.57;5.07;;;22.10;73.10;;;;;;5075595;28;20447;-73
2022/06/30 00:52:26;;;;;;;6.50;5.27;;;22.20;73.00;;;;;;5075288;28;20445;-72
2022/06/30 00:54:55;;;;;;;6.23;5.73;;;22.10;72.90;;;;;;5075511;28;20464;-72
2022/06/30 00:57:24;;;;;;;6.63;6.03;;;22.10;73.70;;;;;;5075444;28;20447;-73
2022/06/30 00:59:54;;;;;;;8.43;5.53;;;22.10;73.70;;;;;;5075283;28;21015;-69
2022/06/30 01:02:21;;;;;;;4.40;4.00;;;22.10;73.50;;;;;;5075937;28;20456;-69
2022/06/30 01:04:52;;;;;;;5.97;4.77;;;21.90;72.80;;;;;;5076335;28;20465;-69
2022/06/30 01:07:21;;;;;;;4.90;4.50;;;21.80;72.40;;;;;;5078346;28;20820;-69
2022/06/30 01:12:44;;;;;;;5.30;4.80;;;21.70;73.20;;;;;;5075008;28;20960;-69
2022/06/30 01:15:14;;;;;;;4.80;4.40;;;21.70;73.60;;;;;;5075033;28;20471;-69
2022/06/30 01:17:40;;;;;;;5.43;4.93;;;21.50;73.20;;;;;;5075085;28;20481;-69
2022/06/30 01:20:08;;;;;;;7.00;4.80;;;21.40;73.20;;;;;;5075129;28;20452;-69
2022/06/30 01:22:37;;;;;;;5.20;4.67;;;21.40;73.50;;;;;;5074874;28;20459;-69
2022/06/30 01:25:04;;;;;;;7.33;4.80;;;21.40;73.60;;;;;;5074552;28;20476;-69
2022/06/30 01:27:31;;;;;;;10.27;5.57;;;21.40;74.10;;;;;;5074775;28;20483;-69
2022/06/30 01:29:58;;;;;;;6.30;5.80;;;21.40;74.60;;;;;;5074322;28;20464;-69
2022/06/30 01:32:25;;;;;;;7.30;5.53;;;21.50;75.00;;;;;;5074787;28;20453;-69
2022/06/30 01:34:53;;;;;;;7.43;6.73;;;21.50;75.40;;;;;;5074435;28;20978;-69
2022/06/30 01:37:19;;;;;;;6.90;6.20;;;21.50;76.00;;;;;;5074407;28;20803;-69
2022/06/30 01:39:48;;;;;;;9.13;8.10;;;21.50;77.00;;;;;;5075466;28;20523;-69
2022/06/30 01:42:15;;;;;;;10.63;9.60;;;21.50;76.80;;;;;;5075083;28;20471;-69
2022/06/30 01:44:42;;;;;;;10.90;9.80;;;21.60;77.90;;;;;;5074371;28;20476;-71
2022/06/30 01:47:09;;;;;;;10.73;9.67;;;21.60;78.50;;;;;;5074373;28;20441;-71
2022/06/30 01:49:36;;;;;;;11.37;10.27;;;21.60;79.00;;;;;;5074057;28;20938;-71
2022/06/30 01:52:04;;;;;;;13.40;12.00;;;21.60;79.40;;;;;;5074322;28;20558;-71
2022/06/30 01:54:31;;;;;;;12.77;11.47;;;21.60;80.90;;;;;;5073998;28;20484;-71
2022/06/30 01:56:59;;;;;;;11.30;10.13;;;21.50;80.50;;;;;;5074260;28;20445;-71
2022/06/30 01:59:26;;;;;;;10.70;9.60;;;21.40;80.70;;;;;;5074208;28;20540;-71
2022/06/30 02:01:53;;;;;;;10.40;9.47;;;21.40;80.40;;;;;;5073887;28;20946;-71
2022/06/30 02:07:05;;;;;;;9.63;8.40;;;21.30;80.30;;;;;;5073772;28;20459;-71
2022/06/30 02:09:31;;;;;;;10.53;9.50;;;21.30;80.50;;;;;;5074024;28;20460;-71
2022/06/30 02:14:43;;;;;;;14.63;10.80;;;21.40;81.00;;;;;;5042948;28;20453;-71
2022/06/30 02:17:10;;;;;;;10.17;9.07;;;21.40;81.00;;;;;;5073928;28;20442;-71
2022/06/30 02:19:37;;;;;;;17.60;10.40;;;21.30;80.70;;;;;;5073906;28;20440;-71
2022/06/30 02:22:04;;;;;;;11.93;10.27;;;21.30;80.70;;;;;;5073836;28;20436;-71
2022/06/30 02:24:31;;;;;;;10.97;9.87;;;21.30;80.90;;;;;;5073940;28;20465;-71
2022/06/30 02:26:57;;;;;;;11.03;9.87;;;21.30;81.00;;;;;;5073613;28;20938;-71
2022/06/30 02:29:26;;;;;;;11.00;9.83;;;21.20;80.90;;;;;;5073574;28;20493;-71
2022/06/30 02:31:52;;;;;;;10.97;9.97;;;21.20;81.20;;;;;;5074616;28;20445;-72
2022/06/30 02:34:19;;;;;;;12.07;9.97;;;21.10;81.40;;;;;;5073536;28;20473;-71
2022/06/30 02:36:46;;;;;;;11.97;10.60;;;21.00;81.40;;;;;;5073675;28;20452;-71
2022/06/30 02:39:13;;;;;;;9.43;8.60;;;21.00;81.70;;;;;;5073328;28;20934;-71
2022/06/30 02:41:40;;;;;;;10.83;9.83;;;20.90;81.40;;;;;;5073330;28;21000;-71
2022/06/30 02:44:06;;;;;;;12.50;10.53;;;20.90;81.40;;;;;;5073483;28;20465;-71
2022/06/30 02:46:35;;;;;;;10.60;9.17;;;21.00;81.30;;;;;;5073579;28;20467;-71
2022/06/30 02:49:01;;;;;;;12.43;8.97;;;21.00;81.30;;;;;;5073497;28;20473;-71
2022/06/30 02:51:28;;;;;;;9.83;8.40;;;21.00;81.20;;;;;;5073550;28;20456;-71
2022/06/30 02:53:55;;;;;;;11.70;9.53;;;21.00;81.20;;;;;;5073416;28;20468;-71
2022/06/30 02:56:21;;;;;;;9.90;8.80;;;21.00;80.80;;;;;;5072682;28;20791;-71
2022/06/30 02:58:49;;;;;;;12.17;8.13;;;21.00;80.80;;;;;;5073165;28;20444;-71
2022/06/30 03:01:15;;;;;;;13.33;8.00;;;21.00;80.70;;;;;;5073381;28;20478;-71
2022/06/30 03:03:43;;;;;;;12.53;7.20;;;21.10;81.00;;;;;;5073360;28;20448;-71
2022/06/30 03:06:10;;;;;;;10.27;7.37;;;21.20;81.20;;;;;;5073084;28;20531;-71
2022/06/30 03:08:37;;;;;;;16.30;8.03;;;21.20;81.30;;;;;;5073188;28;20481;-71
2022/06/30 03:11:04;;;;;;;9.40;7.20;;;21.30;81.50;;;;;;5073339;28;20440;-71
2022/06/30 03:13:30;;;;;;;8.83;6.63;;;21.20;81.40;;;;;;5073240;28;20449;-71
2022/06/30 03:15:57;;;;;;;11.40;7.47;;;21.20;80.90;;;;;;5073306;28;20441;-71
2022/06/30 03:18:24;;;;;;;11.53;7.43;;;21.20;80.80;;;;;;5073263;28;20454;-71
2022/06/30 03:20:52;;;;;;;9.60;6.37;;;21.20;80.80;;;;;;5073309;28;20448;-71
2022/06/30 03:23:19;;;;;;;18.00;7.83;;;21.10;80.70;;;;;;5072882;28;20456;-71
2022/06/30 03:25:46;;;;;;;9.50;6.40;;;21.10;80.80;;;;;;5073151;28;20461;-71
2022/06/30 03:28:13;;;;;;;11.30;6.10;;;21.00;80.80;;;;;;5073199;28;20544;-71
2022/06/30 03:30:39;;;;;;;10.17;6.90;;;21.10;81.20;;;;;;5072778;28;20518;-71
2022/06/30 03:33:06;;;;;;;9.67;7.23;;;21.10;80.70;;;;;;5073407;28;20463;-71
2022/06/30 03:35:33;;;;;;;8.37;6.53;;;21.10;80.70;;;;;;5073830;28;20504;-71
2022/06/30 03:38:03;;;;;;;10.97;6.30;;;21.00;81.00;;;;;;5073232;28;20449;-71
2022/06/30 03:40:30;;;;;;;15.03;7.07;;;21.00;81.30;;;;;;5073714;28;20823;-71
2022/06/30 03:42:57;;;;;;;8.83;6.07;;;21.00;81.10;;;;;;5073695;28;20439;-71
2022/06/30 03:45:23;;;;;;;6.93;6.23;;;21.00;81.00;;;;;;5074435;28;20457;-71
2022/06/30 03:47:50;;;;;;;10.93;5.73;;;21.00;81.50;;;;;;5073436;28;20463;-71
2022/06/30 03:50:17;;;;;;;11.93;5.93;;;21.00;81.40;;;;;;5072961;28;20440;-71
2022/06/30 03:52:44;;;;;;;9.37;6.30;;;21.00;81.30;;;;;;5073618;28;20778;-71
2022/06/30 03:55:12;;;;;;;6.07;5.27;;;20.90;81.30;;;;;;5072779;28;20461;-72
2022/06/30 03:57:39;;;;;;;11.40;6.17;;;20.90;81.20;;;;;;5072838;28;20451;-71
2022/06/30 04:00:07;;;;;;;7.50;5.40;;;20.90;81.20;;;;;;5072846;28;20445;-71
2022/06/30 04:02:34;;;;;;;11.90;6.07;;;20.90;81.30;;;;;;5072431;28;20814;-71
2022/06/30 04:05:01;;;;;;;6.80;5.30;;;20.90;81.40;;;;;;5072805;28;20472;-71
2022/06/30 04:07:27;;;;;;;8.93;6.80;;;20.90;81.60;;;;;;5074348;28;20448;-71
2022/06/30 04:09:54;;;;;;;6.40;5.60;;;20.80;81.70;;;;;;5076799;28;20506;-71
2022/06/30 04:12:22;;;;;;;9.30;5.73;;;20.80;81.90;;;;;;5076361;28;20451;-71
2022/06/30 04:14:49;;;;;;;6.03;5.50;;;20.80;81.80;;;;;;5076127;28;20480;-71
2022/06/30 04:17:16;;;;;;;13.43;6.33;;;20.80;82.10;;;;;;5076236;28;20429;-71
2022/06/30 04:19:42;;;;;;;5.93;5.27;;;20.80;82.00;;;;;;5076154;28;20448;-71
2022/06/30 04:22:10;;;;;;;6.83;6.27;;;20.90;82.10;;;;;;5076103;28;20449;-71
2022/06/30 04:24:36;;;;;;;9.03;6.80;;;20.90;82.40;;;;;;5075806;28;20479;-71
2022/06/30 04:27:04;;;;;;;9.43;5.93;;;20.80;82.70;;;;;;5076063;28;20447;-71
2022/06/30 04:29:32;;;;;;;9.10;5.93;;;20.80;82.70;;;;;;5075628;28;20491;-72
2022/06/30 04:34:43;;;;;;;6.43;5.03;;;20.70;82.40;;;;;;5075982;28;20537;-69
2022/06/30 04:37:09;;;;;;;10.43;5.40;;;20.70;82.70;;;;;;5076536;28;20447;-69
2022/06/30 04:39:36;;;;;;;10.40;6.37;;;20.70;82.70;;;;;;5075891;28;20432;-69
2022/06/30 04:42:02;;;;;;;6.60;4.27;;;20.70;83.00;;;;;;5075044;28;20438;-69
2022/06/30 04:44:29;;;;;;;7.73;5.83;;;20.70;79.60;;;;;;5075463;28;20460;-69
2022/06/30 04:46:57;;;;;;;7.50;4.97;;;21.00;79.50;;;;;;5075841;28;20448;-69
2022/06/30 04:49:24;;;;;;;11.10;5.87;;;21.10;80.50;;;;;;5075848;28;20487;-69
2022/06/30 04:51:51;;;;;;;7.43;5.40;;;21.20;81.00;;;;;;5076142;28;20440;-70
2022/06/30 04:54:18;;;;;;;8.40;5.13;;;21.20;81.10;;;;;;5075654;28;20484;-69
2022/06/30 04:56:45;;;;;;;6.53;5.17;;;21.30;81.60;;;;;;5075567;28;20456;-69
2022/06/30 04:59:11;;;;;;;8.20;4.80;;;21.30;82.40;;;;;;5075613;28;20559;-69
2022/06/30 05:01:38;;;;;;;7.47;5.53;;;21.30;82.70;;;;;;5075751;28;20934;-69
2022/06/30 05:04:06;;;;;;;9.57;5.30;;;21.40;82.00;;;;;;5075391;28;20471;-69
2022/06/30 05:06:33;;;;;;;5.53;5.03;;;21.40;81.60;;;;;;5075151;28;20849;-69
2022/06/30 05:09:00;;;;;;;5.60;5.07;;;21.40;81.40;;;;;;5074833;28;20985;-70
2022/06/30 05:11:27;;;;;;;8.30;6.67;;;21.50;81.80;;;;;;5074821;28;20822;-70
2022/06/30 05:13:53;;;;;;;5.70;5.20;;;21.50;80.50;;;;;;5075032;28;20534;-70
2022/06/30 05:16:20;;;;;;;5.97;5.37;;;21.50;81.60;;;;;;5075101;28;20463;-70
2022/06/30 05:18:48;;;;;;;6.57;5.90;;;21.50;82.10;;;;;;5074271;28;20800;-70
2022/06/30 05:21:16;;;;;;;5.30;4.67;;;21.60;81.50;;;;;;5074982;28;20445;-70
2022/06/30 05:26:28;;;;;;;7.40;5.97;;;21.60;81.70;;;;;;5074893;28;20445;-70
2022/06/30 05:26:31;;;;;;;7.13;5.23;;;21.70;81.70;;;;;;5074622;28;20899;-70
2022/06/30 05:28:58;;;;;;;9.60;5.50;;;21.70;81.30;;;;;;5074612;28;20486;-70
2022/06/30 05:31:24;;;;;;;6.57;5.00;;;21.70;81.40;;;;;;5074634;28;20448;-70
2022/06/30 05:33:51;;;;;;;9.63;5.43;;;21.70;81.60;;;;;;5074756;28;20479;-70
2022/06/30 05:36:19;;;;;;;7.60;4.20;;;21.70;82.20;;;;;;5074634;28;20453;-70
2022/06/30 05:38:46;;;;;;;5.73;5.13;;;21.80;82.80;;;;;;5074607;28;20444;-70
2022/06/30 05:41:13;;;;;;;13.00;4.93;;;21.90;82.50;;;;;;5074554;28;20445;-70
2022/06/30 05:43:39;;;;;;;6.77;4.47;;;22.00;82.80;;;;;;5074166;28;20823;-70
2022/06/30 05:46:06;;;;;;;7.40;5.10;;;22.00;82.40;;;;;;5074425;28;20449;-70
2022/06/30 05:48:33;;;;;;;6.80;5.20;;;22.10;82.00;;;;;;5074382;28;20857;-70
2022/06/30 05:50:59;;;;;;;12.77;5.67;;;22.20;81.40;;;;;;5074395;28;20449;-69
2022/06/30 05:53:28;;;;;;;7.13;5.40;;;22.30;80.70;;;;;;5074448;28;20452;-69
2022/06/30 05:55:54;;;;;;;8.00;6.93;;;22.40;81.30;;;;;;5074320;28;20468;-69
2022/06/30 05:58:21;;;;;;;7.20;5.43;;;22.50;81.10;;;;;;5074478;28;20449;-69
2022/06/30 06:00:48;;;;;;;9.90;5.90;;;22.60;80.90;;;;;;5074279;28;20463;-72
2022/06/30 06:03:15;;;;;;;11.73;6.00;;;22.70;80.50;;;;;;5073981;28;20991;-73
2022/06/30 06:05:42;;;;;;;9.37;5.83;;;22.80;79.50;;;;;;5073866;28;20982;-72
2022/06/30 06:08:10;;;;;;;10.13;5.70;;;22.80;79.50;;;;;;5073922;28;20847;-72
2022/06/30 06:10:38;;;;;;;8.97;7.20;;;23.00;79.20;;;;;;5073845;28;20858;-73
2022/06/30 06:13:06;;;;;;;6.67;5.30;;;23.10;79.30;;;;;;5074195;28;20441;-73
2022/06/30 06:15:32;;;;;;;8.60;5.87;;;23.20;78.90;;;;;;5074179;28;20476;-72
2022/06/30 06:17:59;;;;;;;9.17;5.67;;;23.20;78.40;;;;;;5074949;28;20433;-73
2022/06/30 06:20:26;;;;;;;12.03;6.97;;;23.30;78.80;;;;;;5075660;28;20801;-73
2022/06/30 06:22:53;;;;;;;9.10;6.67;;;23.40;78.30;;;;;;5077070;28;20919;-73
2022/06/30 06:25:20;;;;;;;6.00;5.50;;;23.40;77.70;;;;;;5075611;28;20478;-73
2022/06/30 06:30:30;;;;;;;7.33;6.63;;;23.60;76.30;;;;;;5072304;28;20484;-74
2022/06/30 06:32:57;;;;;;;6.67;6.07;;;23.80;77.30;;;;;;5073676;28;20445;-73
2022/06/30 06:35:24;;;;;;;9.47;6.00;;;23.90;76.20;;;;;;5073760;28;20551;-73
2022/06/30 06:37:51;;;;;;;12.13;4.73;;;24.00;75.60;;;;;;5073812;28;20441;-74
2022/06/30 06:40:17;;;;;;;5.93;4.67;;;24.10;75.00;;;;;;5073630;28;20452;-73
2022/06/30 06:42:44;;;;;;;10.63;5.17;;;24.20;74.20;;;;;;5073549;28;20453;-73
2022/06/30 06:45:12;;;;;;;9.97;5.07;;;24.40;73.20;;;;;;5073508;28;20464;-73
2022/06/30 06:47:39;;;;;;;6.50;4.27;;;24.50;72.20;;;;;;5073559;28;20452;-73
2022/06/30 06:50:07;;;;;;;5.93;5.07;;;24.70;72.00;;;;;;5073465;28;20489;-73
2022/06/30 06:52:34;;;;;;;9.83;4.73;;;24.90;72.10;;;;;;5073728;28;20468;-74
2022/06/30 06:55:00;;;;;;;8.50;5.30;;;25.00;71.20;;;;;;5073596;28;20477;-73
2022/06/30 06:57:33;;;;;;;10.63;5.40;;;25.10;70.00;;;;;;5073720;28;20448;-74
2022/06/30 07:00:00;;;;;;;7.80;4.57;;;25.10;69.50;;;;;;5073518;28;20473;-74
2022/06/30 07:02:28;;;;;;;6.63;3.90;;;25.20;69.00;;;;;;5073037;28;20813;-74
2022/06/30 07:04:55;;;;;;;5.37;3.13;;;25.30;65.70;;;;;;5073051;28;20471;-73
2022/06/30 07:07:22;;;;;;;9.60;3.83;;;25.30;66.10;;;;;;5073453;28;20463;-74
2022/06/30 07:09:49;;;;;;;4.63;3.40;;;25.30;65.40;;;;;;5073418;28;20472;-73
2022/06/30 07:12:15;;;;;;;7.57;3.30;;;25.30;65.00;;;;;;5073436;28;20449;-73
2022/06/30 07:14:43;;;;;;;7.83;4.03;;;25.30;66.50;;;;;;5073423;28;20468;-73
2022/06/30 07:17:09;;;;;;;7.03;3.00;;;25.40;66.20;;;;;;5073065;28;20828;-74
2022/06/30 07:19:37;;;;;;;6.20;3.00;;;25.40;64.60;;;;;;5073231;28;20942;-74
2022/06/30 07:22:05;;;;;;;7.00;3.00;;;25.50;64.60;;;;;;5084278;28;20929;-74
2022/06/30 07:24:32;;;;;;;5.20;3.10;;;25.50;63.80;;;;;;5093570;28;20463;-73
2022/06/30 07:26:59;;;;;;;3.73;3.40;;;25.60;64.60;;;;;;5091270;28;20458;-73
2022/06/30 07:29:26;;;;;;;5.13;3.47;;;25.70;63.50;;;;;;5093000;28;20557;-74
2022/06/30 07:31:53;;;;;;;4.30;2.40;;;25.70;60.10;;;;;;5093375;28;20469;-74
2022/06/30 07:34:20;;;;;;;6.30;3.07;;;25.80;63.10;;;;;;5093402;28;20467;-73
2022/06/30 07:36:48;;;;;;;7.53;3.50;;;25.90;61.40;;;;;;5093510;28;20456;-74
2022/06/30 07:39:15;;;;;;;4.20;3.10;;;26.00;62.20;;;;;;5093918;28;20650;-73
2022/06/30 07:41:42;;;;;;;5.27;3.30;;;26.20;61.70;;;;;;5096099;28;20451;-74
2022/06/30 07:44:09;;;;;;;7.70;3.33;;;26.30;60.10;;;;;;5097766;28;20463;-73
2022/06/30 07:46:36;;;;;;;3.67;3.37;;;26.40;58.60;;;;;;5097519;28;20477;-74
2022/06/30 07:49:03;;;;;;;8.83;3.70;;;26.60;58.00;;;;;;5097075;28;20486;-74
2022/06/30 07:51:29;;;;;;;3.63;3.30;;;26.70;58.70;;;;;;5096840;28;20929;-74
2022/06/30 07:53:57;;;;;;;6.50;3.60;;;26.80;59.10;;;;;;5092517;28;20495;-73
2022/06/30 07:56:24;;;;;;;6.70;3.60;;;26.90;56.80;;;;;;5076761;28;20809;-74
2022/06/30 07:58:51;;;;;;;8.53;3.30;;;27.10;57.50;;;;;;5076786;28;20433;-74
2022/06/30 08:01:19;;;;;;;3.43;3.13;;;27.20;55.30;;;;;;5076558;28;20521;-74
2022/06/30 08:03:46;;;;;;;5.73;3.77;;;27.30;57.60;;;;;;5076464;28;20456;-73
2022/06/30 08:06:13;;;;;;;4.90;3.63;;;27.40;56.90;;;;;;5076520;28;20420;-74
2022/06/30 08:08:40;;;;;;;10.17;3.90;;;27.50;56.50;;;;;;5076453;28;20445;-74
2022/06/30 08:11:09;;;;;;;10.90;3.83;;;27.60;56.20;;;;;;5076258;28;20481;-73
2022/06/30 08:13:36;;;;;;;5.00;3.60;;;27.60;56.80;;;;;;5076120;28;20441;-73
2022/06/30 08:16:03;;;;;;;10.80;3.70;;;27.80;56.10;;;;;;5076067;28;20786;-74
2022/06/30 08:18:30;;;;;;;3.80;2.97;;;27.90;55.60;;;;;;5076368;28;20448;-74
2022/06/30 08:20:57;;;;;;;8.07;3.03;;;28.10;54.70;;;;;;5076407;28;20817;-74
2022/06/30 08:23:24;;;;;;;5.23;2.60;;;28.20;54.00;;;;;;5076131;28;20444;-73
2022/06/30 08:25:51;;;;;;;9.30;3.43;;;28.40;54.40;;;;;;5076528;28;20981;-74
2022/06/30 08:28:19;;;;;;;4.23;3.00;;;28.50;53.90;;;;;;5075971;28;21044;-74
2022/06/30 08:30:46;;;;;;;10.10;3.90;;;28.60;53.30;;;;;;5075800;28;20495;-74
2022/06/30 08:33:13;;;;;;;6.50;3.70;;;28.70;53.00;;;;;;5076096;28;20531;-75
2022/06/30 08:35:39;;;;;;;7.00;4.00;;;28.80;52.80;;;;;;5075774;28;20974;-75
2022/06/30 08:38:06;;;;;;;5.30;3.10;;;28.90;53.20;;;;;;5076031;28;20448;-74
2022/06/30 08:43:21;;;;;;;6.30;3.70;;;28.90;51.10;;;;;;5075859;28;20480;-74
2022/06/30 08:45:49;;;;;;;5.03;3.37;;;28.80;51.30;;;;;;5075891;28;20464;-73
2022/06/30 08:48:16;;;;;;;6.60;3.60;;;28.80;51.70;;;;;;5076134;28;20452;-74
2022/06/30 08:50:44;;;;;;;11.83;4.20;;;28.80;52.00;;;;;;5075719;28;20480;-74
2022/06/30 08:53:11;;;;;;;8.07;4.20;;;28.80;52.90;;;;;;5075429;28;20451;-74
2022/06/30 08:55:38;;;;;;;4.30;3.33;;;29.00;50.60;;;;;;5076560;28;20473;-74
2022/06/30 08:58:07;;;;;;;3.63;2.77;;;29.10;50.90;;;;;;5077549;28;20449;-74
2022/06/30 09:00:37;;;;;;;6.77;2.80;;;29.30;49.30;;;;;;5077057;28;20441;-73
2022/06/30 09:03:04;;;;;;;5.17;2.80;;;29.40;48.70;;;;;;5077659;28;20463;-74
2022/06/30 09:05:31;;;;;;;5.07;3.23;;;29.40;46.90;;;;;;5075601;28;20476;-74
2022/06/30 09:07:59;;;;;;;5.50;2.83;;;29.40;47.90;;;;;;5075527;28;20440;-74
2022/06/30 09:10:26;;;;;;;3.97;3.30;;;29.40;48.00;;;;;;5075079;28;20476;-74
2022/06/30 09:13:00;;;;;;;5.00;3.60;;;29.50;49.20;;;;;;5075177;28;20440;-74
2022/06/30 09:15:30;;;;;;;11.53;3.43;;;29.60;50.20;;;;;;5075010;28;20568;-74
2022/06/30 09:17:58;;;;;;;6.97;3.10;;;29.70;49.30;;;;;;5075197;28;20429;-74
2022/06/30 09:20:34;;;;;;;9.27;3.63;;;29.90;48.70;;;;;;5075041;28;20448;-73
2022/06/30 09:23:01;;;;;;;7.77;3.77;;;30.00;47.10;;;;;;5075103;28;20432;-71
2022/06/30 09:25:31;;;;;;;10.13;3.93;;;30.30;48.40;;;;;;5074987;28;20465;-73
2022/06/30 09:27:58;;;;;;;7.60;4.30;;;30.50;48.60;;;;;;5074990;28;20448;-73
2022/06/30 09:30:26;;;;;;;10.17;3.87;;;30.70;47.50;;;;;;5074521;28;20488;-72
2022/06/30 09:32:55;;;;;;;4.20;3.70;;;30.80;45.30;;;;;;5074654;28;20926;-73
2022/06/30 09:35:26;;;;;;;7.53;3.93;;;30.80;46.80;;;;;;5074670;28;20833;-73
2022/06/30 09:38:02;;;;;;;6.43;3.43;;;31.00;45.90;;;;;;5074876;28;20433;-73
2022/06/30 09:40:30;;;;;;;4.57;3.00;;;31.20;46.20;;;;;;5074788;28;20420;-72
2022/06/30 09:42:57;;;;;;;5.30;3.53;;;31.50;46.00;;;;;;5074620;28;20429;-73
2022/06/30 09:45:40;;;;;;;6.17;3.90;;;31.70;44.60;;;;;;5074262;28;20584;-73
2022/06/30 09:48:07;;;;;;;6.90;3.60;;;32.00;44.30;;;;;;5074676;28;20433;-73
2022/06/30 09:50:36;;;;;;;4.33;3.70;;;32.00;44.00;;;;;;5074426;28;20492;-73
2022/06/30 09:53:10;;;;;;;5.17;3.23;;;32.10;43.00;;;;;;5074327;28;20444;-72
2022/06/30 09:55:39;;;;;;;9.30;3.87;;;32.30;43.10;;;;;;5074227;28;20472;-72
2022/06/30 09:58:06;;;;;;;7.50;3.80;;;32.50;43.20;;;;;;5074360;28;20440;-73
2022/06/30 10:00:44;;;;;;;9.10;4.00;;;32.60;43.50;;;;;;5074317;28;20440;-73
2022/06/30 10:03:11;;;;;;;4.97;3.47;;;32.70;43.40;;;;;;5074228;28;20431;-73
2022/06/30 10:05:43;;;;;;;27.27;4.77;;;32.90;41.70;;;;;;5074075;28;20546;-72
2022/06/30 10:08:11;;;;;;;7.20;3.37;;;33.00;42.40;;;;;;5074210;28;20527;-73
2022/06/30 10:10:38;;;;;;;5.67;3.87;;;33.20;42.00;;;;;;5074069;28;20849;-72
2022/06/30 10:13:06;;;;;;;9.20;3.40;;;33.40;41.60;;;;;;5074146;28;20451;-73
2022/06/30 10:15:37;;;;;;;3.83;3.13;;;33.50;40.60;;;;;;5073984;28;20590;-71
2022/06/30 10:18:05;;;;;;;7.10;3.17;;;33.70;41.10;;;;;;5074039;28;20466;-71
2022/06/30 10:20:38;;;;;;;3.90;3.00;;;33.80;39.50;;;;;;5073757;28;20417;-70
2022/06/30 10:23:08;;;;;;;5.90;3.40;;;34.20;40.40;;;;;;5073842;28;20954;-72
2022/06/30 10:25:35;;;;;;;5.07;3.50;;;34.50;37.90;;;;;;5073952;28;20464;-69
2022/06/30 10:28:03;;;;;;;4.80;3.77;;;34.70;38.10;;;;;;5073926;28;20436;-69
2022/06/30 10:30:43;;;;;;;5.03;3.50;;;35.00;37.90;;;;;;5073573;28;20549;-69
2022/06/30 10:33:18;;;;;;;8.43;3.73;;;35.20;36.50;;;;;;5073800;28;20472;-69
2022/06/30 10:35:49;;;;;;;6.40;3.60;;;35.50;36.00;;;;;;5073429;28;20543;-69
2022/06/30 10:38:30;;;;;;;6.67;3.67;;;35.70;35.80;;;;;;5073402;28;21055;-69
2022/06/30 10:41:07;;;;;;;6.03;3.30;;;35.70;35.10;;;;;;5073430;28;20800;-69
2022/06/30 10:43:34;;;;;;;5.83;4.37;;;35.60;35.60;;;;;;5073549;28;20446;-69
2022/06/30 10:46:02;;;;;;;4.60;3.50;;;35.50;35.60;;;;;;5073650;28;20792;-69
2022/06/30 10:48:49;;;;;;;5.53;4.53;;;35.60;36.30;;;;;;5073587;28;20535;-68
2022/06/30 10:51:16;;;;;;;5.90;3.90;;;35.70;34.00;;;;;;5073547;28;20529;-69
2022/06/30 10:53:52;;;;;;;4.17;3.40;;;36.00;34.40;;;;;;5072984;28;20975;-70
2022/06/30 10:56:20;;;;;;;3.90;2.77;;;36.40;34.10;;;;;;5073445;28;20459;-69
2022/06/30 10:59:07;;;;;;;5.67;3.47;;;36.90;33.10;;;;;;5073160;28;20851;-69
2022/06/30 11:01:33;;;;;;;5.70;3.90;;;37.60;32.70;;;;;;5073428;28;20225;-69
2022/06/30 11:04:02;;;;;;;6.27;3.67;;;38.10;30.40;;;;;;5073482;28;20222;-69
2022/06/30 11:06:58;;;;;;;7.25;3.53;;;38.60;30.50;;;;;;5073248;28;20205;-69
2022/06/30 11:09:58;;;;;;;6.10;3.30;;;38.80;27.90;;;;;;5073511;28;20201;-69
2022/06/30 11:12:56;;;;;;;4.30;3.17;;;38.90;28.90;;;;;;5073510;28;20192;-71
2022/06/30 11:15:23;;;;;;;7.97;4.28;;;38.90;27.90;;;;;;5073559;28;20221;-72
2022/06/30 11:17:54;;;;;;;4.45;2.90;;;38.90;28.60;;;;;;5077531;28;20272;-73
2022/06/30 11:20:20;;;;;;;14.63;3.75;;;38.60;29.00;;;;;;5077592;28;20186;-73
2022/06/30 11:22:47;;;;;;;7.55;3.65;;;38.70;30.00;;;;;;5077503;28;20202;-72
2022/06/30 11:28:03;;;;;;;9.15;3.72;;;38.70;29.60;;;;;;5044237;28;20197;-72
2022/06/30 11:30:32;;;;;;;9.93;3.78;;;39.00;29.80;;;;;;5077824;28;20606;-73
2022/06/30 11:33:00;;;;;;;7.43;3.17;;;39.50;29.30;;;;;;5077877;28;20198;-72
2022/06/30 11:35:27;;;;;;;12.75;2.60;;;40.00;27.50;;;;;;5078337;28;20659;-72
2022/06/30 11:37:54;;;;;;;10.38;2.55;;;40.50;26.80;;;;;;5079845;28;20201;-73
2022/06/30 11:40:23;;;;;;;3.78;2.03;;;40.70;25.90;;;;;;5080388;28;20186;-72
2022/06/30 11:42:50;;;;;;;3.45;2.08;;;41.10;25.90;;;;;;5080780;28;20214;-72
2022/06/30 11:45:17;;;;;;;2.88;2.33;;;41.70;25.80;;;;;;5080268;28;20233;-71
2022/06/30 11:47:51;;;;;;;3.00;1.77;;;42.20;25.40;;;;;;5077472;28;20198;-72
2022/06/30 11:50:21;;;;;;;3.28;2.03;;;42.80;24.60;;;;;;5077540;28;20209;-72
2022/06/30 11:52:50;;;;;;;3.92;1.90;;;43.50;24.70;;;;;;5076675;28;20205;-71
2022/06/30 11:55:17;;;;;;;1.98;1.30;;;44.20;23.30;;;;;;5076350;28;20733;-71
2022/06/30 11:57:47;;;;;;;2.63;1.42;;;44.90;22.60;;;;;;5076593;28;20244;-71
2022/06/30 12:00:16;;;;;;;4.15;2.00;;;45.30;20.60;;;;;;5077552;28;20204;-71
2022/06/30 12:02:45;;;;;;;2.58;1.90;;;45.40;20.00;;;;;;5076185;28;20658;-72
2022/06/30 12:05:14;;;;;;;2.97;2.00;;;45.10;19.80;;;;;;5076498;28;20221;-72
2022/06/30 12:07:42;;;;;;;4.60;2.25;;;44.90;20.30;;;;;;5076479;28;20194;-73
2022/06/30 12:10:11;;;;;;;4.68;2.22;;;44.80;20.90;;;;;;5076342;28;20576;-72
2022/06/30 12:12:39;;;;;;;3.28;2.17;;;44.70;21.10;;;;;;5076062;28;20204;-72
2022/06/30 12:15:12;;;;;;;3.35;2.08;;;44.90;21.20;;;;;;5076165;28;20272;-72
2022/06/30 12:17:41;;;;;;;5.75;2.50;;;45.20;20.90;;;;;;5076311;28;20187;-72
2022/06/30 12:20:11;;;;;;;2.92;2.03;;;45.50;20.50;;;;;;5076281;28;20190;-72
2022/06/30 12:22:40;;;;;;;4.05;1.90;;;45.80;20.90;;;;;;5075923;28;20754;-72
2022/06/30 12:25:08;;;;;;;2.30;1.95;;;46.20;21.20;;;;;;5076108;28;20229;-72
2022/06/30 12:27:39;;;;;;;4.13;2.20;;;46.60;20.40;;;;;;5075122;28;20186;-73
2022/06/30 12:30:10;;;;;;;4.05;1.80;;;47.20;20.10;;;;;;5075809;28;20213;-73
2022/06/30 12:32:37;;;;;;;7.03;2.40;;;47.80;19.50;;;;;;5075736;28;20568;-73
2022/06/30 12:35:06;;;;;;;2.92;1.48;;;47.90;18.20;;;;;;5075920;28;20232;-73
2022/06/30 12:37:36;;;;;;;4.32;2.05;;;47.90;18.10;;;;;;5075939;28;20202;-72
2022/06/30 12:40:06;;;;;;;3.20;2.40;;;48.30;18.60;;;;;;5075497;28;20549;-71
2022/06/30 12:42:44;;;;;;;6.60;1.98;;;48.70;18.70;;;;;;5076685;28;20202;-72
2022/06/30 12:45:42;;;;;;;3.85;1.75;;;48.90;17.40;;;;;;5075726;28;20222;-72
2022/06/30 12:48:10;;;;;;;3.05;1.95;;;48.70;17.40;;;;;;5075492;28;20193;-72
2022/06/30 12:50:38;;;;;;;2.85;1.73;;;48.50;17.30;;;;;;5075920;28;20212;-72
2022/06/30 12:53:23;;;;;;;3.60;1.80;;;48.40;18.50;;;;;;5075750;28;20202;-72
2022/06/30 12:55:57;;;;;;;3.63;1.77;;;48.50;18.50;;;;;;5075528;28;20225;-73
2022/06/30 12:58:24;;;;;;;1.80;1.45;;;48.90;18.10;;;;;;5075346;28;20185;-73
2022/06/30 13:00:58;;;;;;;3.42;2.08;;;49.30;17.90;;;;;;5075160;28;20728;-72
2022/06/30 13:03:25;;;;;;;2.92;1.95;;;49.70;17.40;;;;;;5075692;28;20190;-74
2022/06/30 13:05:52;;;;;;;2.42;1.80;;;49.90;17.40;;;;;;5075769;28;20593;-73
2022/06/30 13:08:19;;;;;;;5.25;1.70;;;50.00;16.50;;;;;;5075545;28;20212;-73
2022/06/30 13:13:30;;;;;;;5.68;1.67;;;50.00;16.20;;;;;;5075138;28;20734;-73